Time;durP1;ratioP1;P1;durP2;ratioP2;P2;SDS_P1;SDS_P2;PMS_P1;PMS_P2;Temp;Humidity;BMP_temperature;BMP_pressure;BME280_temperature;BME280_humidity;BME280_pressure;Samples;Min_cycle;Max_cycle;Signal;HPM_P1;HPM_P2
2021/08/03 00:00:25;;;;;;;1.88;1.63;;;15.00;99.90;;;;;;5071198;28;20016;-47
2021/08/03 00:02:52;;;;;;;3.05;2.10;;;15.10;99.90;;;;;;5071265;28;20040;-46
2021/08/03 00:05:23;;;;;;;2.42;1.50;;;15.00;99.90;;;;;;5070676;28;20668;-47
2021/08/03 00:07:55;;;;;;;2.85;1.67;;;15.10;99.90;;;;;;5071134;28;20029;-47
2021/08/03 00:10:22;;;;;;;4.13;1.80;;;15.10;99.90;;;;;;5071067;28;20020;-47
2021/08/03 00:12:52;;;;;;;2.55;1.50;;;15.10;99.90;;;;;;5070950;28;20553;-47
2021/08/03 00:15:20;;;;;;;2.22;1.67;;;15.10;99.90;;;;;;5070338;28;20533;-49
2021/08/03 00:17:47;;;;;;;3.38;1.70;;;15.10;99.90;;;;;;5069637;28;20540;-47
2021/08/03 00:20:13;;;;;;;3.00;1.98;;;15.20;99.90;;;;;;5071216;28;20432;-49
2021/08/03 00:22:38;;;;;;;4.88;1.75;;;15.10;99.90;;;;;;5070862;28;20021;-46
2021/08/03 00:25:04;;;;;;;3.53;1.90;;;15.20;99.90;;;;;;5070391;28;20036;-46
2021/08/03 00:27:30;;;;;;;1.77;1.40;;;15.20;99.90;;;;;;5070897;28;20086;-47
2021/08/03 00:29:57;;;;;;;3.47;1.85;;;15.20;99.90;;;;;;5070227;28;20032;-47
2021/08/03 00:32:25;;;;;;;4.63;1.80;;;15.20;99.90;;;;;;5070549;28;20046;-47
2021/08/03 00:34:51;;;;;;;2.45;1.80;;;15.10;99.90;;;;;;5069959;28;20095;-47
2021/08/03 00:37:16;;;;;;;2.65;1.83;;;15.10;99.90;;;;;;5070828;28;20416;-46
2021/08/03 00:39:42;;;;;;;1.90;1.70;;;15.10;99.90;;;;;;5070769;28;20025;-48
2021/08/03 00:42:07;;;;;;;1.73;1.45;;;15.10;99.90;;;;;;5070684;28;20020;-48
2021/08/03 00:44:40;;;;;;;1.98;1.60;;;15.10;99.90;;;;;;5069874;28;20390;-47
2021/08/03 00:47:05;;;;;;;7.00;2.03;;;15.20;99.90;;;;;;5070501;28;20025;-50
2021/08/03 00:49:31;;;;;;;3.58;2.38;;;15.20;99.90;;;;;;5070393;28;20052;-46
2021/08/03 00:51:56;;;;;;;2.72;1.88;;;15.20;99.90;;;;;;5070387;28;20047;-47
2021/08/03 00:54:22;;;;;;;2.88;1.70;;;15.20;99.90;;;;;;5068231;28;20081;-47
2021/08/03 00:56:48;;;;;;;4.80;1.85;;;15.20;99.90;;;;;;5070077;28;20023;-46
2021/08/03 00:59:13;;;;;;;4.03;1.80;;;15.20;99.90;;;;;;5070194;28;20025;-47
2021/08/03 01:01:38;;;;;;;2.38;1.33;;;15.20;99.90;;;;;;5070142;28;20021;-46
2021/08/03 01:04:05;;;;;;;1.65;1.38;;;15.20;99.90;;;;;;5069363;28;20032;-47
2021/08/03 01:07:04;;;;;;;3.85;1.70;;;15.20;99.90;;;;;;5070058;28;20027;-48
2021/08/03 01:09:45;;;;;;;6.38;1.75;;;15.20;99.90;;;;;;5060423;28;20040;-46
2021/08/03 01:12:37;;;;;;;3.05;1.65;;;15.20;99.90;;;;;;5069746;28;20042;-48
2021/08/03 01:15:12;;;;;;;3.20;1.90;;;15.20;99.90;;;;;;5069066;28;20402;-47
2021/08/03 01:18:03;;;;;;;1.80;1.50;;;15.20;99.90;;;;;;5069884;28;20058;-46
2021/08/03 01:20:45;;;;;;;3.10;1.73;;;15.20;99.90;;;;;;5069974;28;20021;-46
2021/08/03 01:23:35;;;;;;;6.05;2.00;;;15.20;99.90;;;;;;5069938;28;20044;-50
2021/08/03 01:26:19;;;;;;;5.65;1.98;;;15.20;99.90;;;;;;5069779;28;20028;-46
2021/08/03 01:28:47;;;;;;;3.15;1.90;;;15.20;99.90;;;;;;5069661;28;20016;-46
2021/08/03 01:31:22;;;;;;;4.88;2.20;;;15.20;99.90;;;;;;5070004;28;20031;-48
2021/08/03 01:33:52;;;;;;;3.25;1.55;;;15.20;99.90;;;;;;5068845;28;20023;-47
2021/08/03 01:36:18;;;;;;;3.55;2.05;;;15.20;99.90;;;;;;5069480;28;20070;-47
2021/08/03 01:38:46;;;;;;;2.70;1.73;;;15.20;99.90;;;;;;5069389;28;20029;-46
2021/08/03 01:41:16;;;;;;;5.40;2.10;;;15.20;99.90;;;;;;5069133;28;20078;-48
2021/08/03 01:43:44;;;;;;;4.05;1.80;;;15.20;99.90;;;;;;5068924;28;20017;-47
2021/08/03 01:46:10;;;;;;;3.53;1.73;;;15.20;99.90;;;;;;5067957;28;20128;-47
2021/08/03 01:48:37;;;;;;;6.03;1.88;;;15.20;99.90;;;;;;5069271;28;20111;-47
2021/08/03 01:51:03;;;;;;;4.35;2.08;;;15.20;99.90;;;;;;5069144;28;20087;-46
2021/08/03 01:53:28;;;;;;;3.30;2.10;;;15.20;99.90;;;;;;5068771;28;20086;-47
2021/08/03 01:55:57;;;;;;;4.35;2.03;;;15.20;99.90;;;;;;5069231;28;20382;-47
2021/08/03 01:58:22;;;;;;;2.72;2.10;;;15.20;99.90;;;;;;5069081;28;20501;-48
2021/08/03 02:00:51;;;;;;;6.13;2.47;;;15.10;99.90;;;;;;5069146;28;20261;-46
2021/08/03 02:03:19;;;;;;;4.78;2.50;;;15.00;99.90;;;;;;5068585;28;20021;-46
2021/08/03 02:05:45;;;;;;;5.90;1.95;;;15.00;99.90;;;;;;5069420;28;20498;-47
2021/08/03 02:08:11;;;;;;;4.18;2.78;;;14.90;99.90;;;;;;5069040;28;20111;-46
2021/08/03 02:10:38;;;;;;;6.75;2.42;;;14.90;99.90;;;;;;5068967;28;20509;-46
2021/08/03 02:13:05;;;;;;;5.15;2.45;;;14.80;99.90;;;;;;5067411;28;20043;-46
2021/08/03 02:15:31;;;;;;;4.30;1.80;;;14.70;99.90;;;;;;5068001;28;20028;-46
2021/08/03 02:17:57;;;;;;;4.57;2.30;;;14.60;99.90;;;;;;5068667;28;20525;-47
2021/08/03 02:20:23;;;;;;;9.65;2.60;;;14.60;99.90;;;;;;5068636;28;20478;-47
2021/08/03 02:22:49;;;;;;;5.13;2.38;;;14.50;99.90;;;;;;5068863;28;20101;-46
2021/08/03 02:25:15;;;;;;;6.45;2.42;;;14.60;99.90;;;;;;5066877;28;20042;-47
2021/08/03 02:27:40;;;;;;;4.88;2.67;;;14.50;99.90;;;;;;5068595;28;20486;-47
2021/08/03 02:30:08;;;;;;;3.67;2.33;;;14.50;99.90;;;;;;5068654;28;20176;-47
2021/08/03 02:33:15;;;;;;;5.18;2.38;;;14.50;99.90;;;;;;5068685;28;20089;-46
2021/08/03 02:35:55;;;;;;;3.60;2.63;;;14.40;99.90;;;;;;5068272;28;20202;-48
2021/08/03 02:38:24;;;;;;;4.05;2.40;;;14.40;99.90;;;;;;5068698;28;20024;-46
2021/08/03 02:40:51;;;;;;;3.72;2.38;;;14.40;99.90;;;;;;5068681;28;20067;-46
2021/08/03 02:43:20;;;;;;;4.03;2.33;;;14.30;99.90;;;;;;5068229;28;20115;-47
2021/08/03 02:45:46;;;;;;;4.88;2.50;;;14.30;99.90;;;;;;5068667;28;20028;-46
2021/08/03 02:48:15;;;;;;;5.43;2.83;;;14.30;99.90;;;;;;5068799;28;20425;-47
2021/08/03 02:50:43;;;;;;;5.45;2.90;;;14.30;99.90;;;;;;5068827;28;20052;-46
2021/08/03 02:53:20;;;;;;;3.45;3.05;;;14.30;99.90;;;;;;5068428;28;20547;-49
2021/08/03 02:55:50;;;;;;;6.38;2.95;;;14.30;99.90;;;;;;5072430;28;20692;-46
2021/08/03 02:58:20;;;;;;;;;;;14.30;99.90;;;;;;5073133;28;20375;-47
2021/08/03 03:00:47;;;;;;;4.97;2.70;;;14.30;99.90;;;;;;5072517;28;20007;-48
2021/08/03 03:03:17;;;;;;;4.30;2.85;;;14.30;99.90;;;;;;5072063;28;20021;-48
2021/08/03 03:05:47;;;;;;;7.45;2.80;;;14.30;99.90;;;;;;5072170;28;20024;-46
2021/08/03 03:08:16;;;;;;;5.78;3.55;;;14.30;99.90;;;;;;5072417;28;20032;-46
2021/08/03 03:11:03;;;;;;;5.45;3.03;;;14.30;99.90;;;;;;5071085;28;20367;-49
2021/08/03 03:13:40;;;;;;;4.88;3.38;;;14.30;99.90;;;;;;5071608;28;20098;-48
2021/08/03 03:16:08;;;;;;;5.38;3.47;;;14.30;99.90;;;;;;5071969;28;20044;-47
2021/08/03 03:18:34;;;;;;;9.05;3.97;;;14.30;99.90;;;;;;5072079;28;20400;-46
2021/08/03 03:21:02;;;;;;;6.47;3.78;;;14.30;99.90;;;;;;5072057;28;20028;-47
2021/08/03 03:23:33;;;;;;;6.60;3.83;;;14.30;99.90;;;;;;5071446;28;20024;-47
2021/08/03 03:26:01;;;;;;;4.50;3.08;;;14.30;99.90;;;;;;5072024;28;20051;-49
2021/08/03 03:28:37;;;;;;;7.90;3.80;;;14.30;99.90;;;;;;5072004;28;20029;-49
2021/08/03 03:31:04;;;;;;;5.47;3.95;;;14.30;99.90;;;;;;5071840;28;20367;-49
2021/08/03 03:33:30;;;;;;;7.60;3.70;;;14.30;99.90;;;;;;5071202;28;20067;-49
2021/08/03 03:36:00;;;;;;;6.10;3.90;;;14.30;99.90;;;;;;5071611;28;20029;-47
2021/08/03 03:38:30;;;;;;;5.70;3.38;;;14.30;99.90;;;;;;5071773;28;20102;-47
2021/08/03 03:40:57;;;;;;;6.35;3.92;;;14.30;99.90;;;;;;5071739;28;20078;-48
2021/08/03 03:43:23;;;;;;;8.00;3.95;;;14.30;99.90;;;;;;5070897;28;20035;-48
2021/08/03 03:45:59;;;;;;;5.60;3.95;;;14.30;99.90;;;;;;5071604;28;20048;-50
2021/08/03 03:48:30;;;;;;;6.15;3.90;;;14.30;99.90;;;;;;5071975;28;20031;-47
2021/08/03 03:51:00;;;;;;;5.07;3.92;;;14.30;99.90;;;;;;5071646;28;20056;-47
2021/08/03 03:53:35;;;;;;;5.95;3.30;;;14.30;99.90;;;;;;5070994;28;20502;-46
2021/08/03 03:56:04;;;;;;;7.72;4.15;;;14.30;99.90;;;;;;5071239;28;20107;-46
2021/08/03 03:58:39;;;;;;;6.20;3.97;;;14.30;99.90;;;;;;5071570;28;20023;-46
2021/08/03 04:01:04;;;;;;;6.65;4.07;;;14.30;99.90;;;;;;5071599;28;20044;-47
2021/08/03 04:03:35;;;;;;;3.80;3.28;;;14.30;99.90;;;;;;5069676;28;20067;-48
2021/08/03 04:06:01;;;;;;;5.80;3.72;;;14.30;99.90;;;;;;5071357;28;20028;-46
2021/08/03 04:08:29;;;;;;;9.27;4.72;;;14.20;99.90;;;;;;5071308;28;20044;-47
2021/08/03 04:11:03;;;;;;;9.38;4.45;;;14.20;99.90;;;;;;5071289;28;20024;-47
2021/08/03 04:13:29;;;;;;;6.88;3.92;;;14.20;99.90;;;;;;5070499;28;20036;-47
2021/08/03 04:15:55;;;;;;;4.97;3.60;;;14.30;99.90;;;;;;5071061;28;20025;-47
2021/08/03 04:18:20;;;;;;;7.45;4.13;;;14.30;99.90;;;;;;5071342;28;20021;-48
2021/08/03 04:20:46;;;;;;;7.60;4.60;;;14.30;99.90;;;;;;5071086;28;20090;-46
2021/08/03 04:23:12;;;;;;;7.65;4.53;;;14.30;99.90;;;;;;5070612;28;20082;-47
2021/08/03 04:25:39;;;;;;;6.80;3.75;;;14.40;99.90;;;;;;5070802;28;20036;-46
2021/08/03 04:28:06;;;;;;;5.50;4.13;;;14.40;99.90;;;;;;5070791;28;20036;-47
2021/08/03 04:30:32;;;;;;;7.20;4.57;;;14.40;99.90;;;;;;5070770;28;20063;-46
2021/08/03 04:32:57;;;;;;;6.07;4.47;;;14.30;99.90;;;;;;5070765;28;20052;-46
2021/08/03 04:35:23;;;;;;;8.63;4.88;;;14.30;99.90;;;;;;5069996;28;20032;-46
2021/08/03 04:37:49;;;;;;;6.90;4.65;;;14.30;99.90;;;;;;5070832;28;20029;-47
2021/08/03 04:40:16;;;;;;;4.57;3.88;;;14.30;99.90;;;;;;5070742;28;20092;-47
2021/08/03 04:42:43;;;;;;;6.22;4.80;;;14.30;99.90;;;;;;5070658;28;20035;-46
2021/08/03 04:45:09;;;;;;;5.53;4.00;;;14.40;99.90;;;;;;5070013;28;20036;-46
2021/08/03 04:47:49;;;;;;;6.43;4.28;;;14.40;99.90;;;;;;5070519;28;20047;-47
2021/08/03 04:50:25;;;;;;;5.72;3.85;;;14.40;99.90;;;;;;5070335;28;20025;-46
2021/08/03 04:52:51;;;;;;;6.20;4.40;;;14.50;99.90;;;;;;5070426;28;20029;-47
2021/08/03 04:55:17;;;;;;;6.35;4.82;;;14.50;99.90;;;;;;5069577;28;20020;-47
2021/08/03 04:57:43;;;;;;;5.00;4.30;;;14.50;99.90;;;;;;5070569;28;20016;-46
2021/08/03 05:00:11;;;;;;;6.43;4.22;;;14.50;99.90;;;;;;5068927;28;20144;-46
2021/08/03 05:02:37;;;;;;;5.50;3.80;;;14.60;99.90;;;;;;5070530;28;20029;-46
2021/08/03 05:05:04;;;;;;;6.68;4.00;;;14.60;99.90;;;;;;5068318;28;20020;-48
2021/08/03 05:07:30;;;;;;;6.50;4.57;;;14.60;99.90;;;;;;5070141;28;20166;-46
2021/08/03 05:10:07;;;;;;;3.85;3.45;;;14.60;99.90;;;;;;5070137;28;20108;-46
2021/08/03 05:12:33;;;;;;;7.22;4.10;;;14.70;99.90;;;;;;5069744;28;20203;-47
2021/08/03 05:15:02;;;;;;;6.55;4.28;;;14.70;99.90;;;;;;5069227;28;20031;-47
2021/08/03 05:17:29;;;;;;;4.80;3.75;;;14.70;99.90;;;;;;5068025;28;20020;-46
2021/08/03 05:19:55;;;;;;;4.28;3.13;;;14.70;99.90;;;;;;5070258;28;20069;-46
2021/08/03 05:22:20;;;;;;;6.35;3.92;;;14.80;99.90;;;;;;5069803;28;20028;-46
2021/08/03 05:24:46;;;;;;;5.30;4.45;;;14.80;99.90;;;;;;5067678;28;20024;-47
2021/08/03 05:27:11;;;;;;;7.20;4.28;;;14.80;99.90;;;;;;5069720;28;20116;-47
2021/08/03 05:29:36;;;;;;;7.70;5.38;;;14.80;99.90;;;;;;5069614;28;20028;-47
2021/08/03 05:32:02;;;;;;;7.38;4.88;;;14.80;99.90;;;;;;5069556;28;20390;-46
2021/08/03 05:34:28;;;;;;;5.13;4.35;;;14.80;99.90;;;;;;5068978;28;20025;-47
2021/08/03 05:36:54;;;;;;;6.93;4.10;;;14.90;99.90;;;;;;5069552;28;20051;-47
2021/08/03 05:39:20;;;;;;;6.85;4.88;;;14.80;99.90;;;;;;5069410;28;20025;-47
2021/08/03 05:41:45;;;;;;;8.05;4.28;;;14.80;99.90;;;;;;5069503;28;20021;-46
2021/08/03 05:44:11;;;;;;;4.93;4.03;;;14.80;99.90;;;;;;5067399;28;20024;-47
2021/08/03 05:46:36;;;;;;;5.47;4.10;;;14.80;99.90;;;;;;5069352;28;20059;-46
2021/08/03 05:49:02;;;;;;;6.72;4.80;;;14.80;99.90;;;;;;5069305;28;20486;-47
2021/08/03 05:51:28;;;;;;;5.22;4.13;;;14.80;99.90;;;;;;5069281;28;20060;-47
2021/08/03 05:53:53;;;;;;;7.03;4.68;;;14.70;99.90;;;;;;5068932;28;20031;-46
2021/08/03 05:56:19;;;;;;;4.75;3.88;;;14.80;99.90;;;;;;5069120;28;20036;-47
2021/08/03 05:58:44;;;;;;;7.47;4.50;;;14.80;99.90;;;;;;5069202;28;20036;-49
2021/08/03 06:01:10;;;;;;;7.22;4.85;;;14.80;99.90;;;;;;5068981;28;20054;-46
2021/08/03 06:03:35;;;;;;;7.22;4.78;;;14.90;99.90;;;;;;5068617;28;20024;-47
2021/08/03 06:06:03;;;;;;;6.38;4.47;;;14.90;99.90;;;;;;5069280;28;20281;-48
2021/08/03 06:08:31;;;;;;;5.85;3.72;;;14.90;99.90;;;;;;5069189;28;20034;-49
2021/08/03 06:10:58;;;;;;;6.90;4.95;;;15.00;99.90;;;;;;5068894;28;20032;-47
2021/08/03 06:13:25;;;;;;;7.00;4.00;;;15.00;99.90;;;;;;5068105;28;20614;-46
2021/08/03 06:15:52;;;;;;;6.30;4.07;;;15.00;99.90;;;;;;5069034;28;20348;-46
2021/08/03 06:18:29;;;;;;;8.20;3.83;;;15.10;99.90;;;;;;5067516;28;20017;-48
2021/08/03 06:20:56;;;;;;;6.60;4.32;;;15.10;99.90;;;;;;5069009;28;20680;-46
2021/08/03 06:23:24;;;;;;;7.10;3.83;;;15.10;99.90;;;;;;5068033;28;20070;-46
2021/08/03 06:25:52;;;;;;;8.73;4.20;;;15.20;99.90;;;;;;5068736;28;20028;-49
2021/08/03 06:28:20;;;;;;;9.73;4.72;;;15.20;99.90;;;;;;5067840;28;20029;-47
2021/08/03 06:30:50;;;;;;;6.95;4.38;;;15.30;99.90;;;;;;5067380;28;20486;-47
2021/08/03 06:33:17;;;;;;;5.97;4.03;;;15.30;99.90;;;;;;5068021;28;20119;-47
2021/08/03 06:35:44;;;;;;;6.90;4.00;;;15.40;99.90;;;;;;5068342;28;20617;-49
2021/08/03 06:38:10;;;;;;;6.53;3.80;;;15.50;99.90;;;;;;5068891;28;20039;-48
2021/08/03 06:40:39;;;;;;;9.75;4.00;;;15.60;99.90;;;;;;5067111;28;20020;-46
2021/08/03 06:43:13;;;;;;;4.97;3.70;;;15.70;99.90;;;;;;5068348;28;20555;-48
2021/08/03 06:45:40;;;;;;;9.07;4.53;;;15.70;99.90;;;;;;5068351;28;20032;-46
2021/08/03 06:48:11;;;;;;;6.80;4.22;;;15.70;99.90;;;;;;5068443;28;20035;-46
2021/08/03 06:50:44;;;;;;;7.53;3.78;;;15.90;99.90;;;;;;5067157;28;20029;-46
2021/08/03 06:53:11;;;;;;;5.72;3.58;;;16.00;99.90;;;;;;5068325;28;20082;-46
2021/08/03 06:55:41;;;;;;;6.63;4.28;;;16.10;99.90;;;;;;5068114;28;20047;-47
2021/08/03 06:58:16;;;;;;;8.37;3.37;;;16.30;99.90;;;;;;5068526;28;20073;-47
2021/08/03 07:00:44;;;;;;;5.38;3.33;;;16.40;99.90;;;;;;5068508;28;20024;-47
2021/08/03 07:03:10;;;;;;;5.43;2.72;;;16.60;99.90;;;;;;5068251;28;20029;-50
2021/08/03 07:05:47;;;;;;;6.00;2.67;;;16.70;99.90;;;;;;5068103;28;20520;-47
2021/08/03 07:08:14;;;;;;;5.57;3.33;;;16.90;99.90;;;;;;5068749;28;20117;-50
2021/08/03 07:10:40;;;;;;;5.72;3.45;;;17.10;99.90;;;;;;5067161;28;20020;-47
2021/08/03 07:13:06;;;;;;;8.40;3.85;;;17.20;99.90;;;;;;5068156;28;20039;-47
2021/08/03 07:15:32;;;;;;;5.18;3.35;;;17.40;99.90;;;;;;5067494;28;20398;-48
2021/08/03 07:17:59;;;;;;;5.50;3.40;;;17.30;99.90;;;;;;5068208;28;20033;-47
2021/08/03 07:20:24;;;;;;;9.25;3.90;;;17.40;99.90;;;;;;5068567;28;20359;-46
2021/08/03 07:22:50;;;;;;;4.28;3.50;;;17.50;99.90;;;;;;5068239;28;20040;-48
2021/08/03 07:25:17;;;;;;;6.10;3.33;;;17.60;99.90;;;;;;5067492;28;20025;-46
2021/08/03 07:27:42;;;;;;;5.60;2.83;;;17.70;99.90;;;;;;5068191;28;20043;-46
2021/08/03 07:30:10;;;;;;;6.57;3.47;;;17.80;99.90;;;;;;5068326;28;20104;-46
2021/08/03 07:32:37;;;;;;;4.63;3.30;;;17.80;99.90;;;;;;5068315;28;20074;-47
2021/08/03 07:35:04;;;;;;;6.75;3.20;;;17.80;99.90;;;;;;5068169;28;20039;-47
2021/08/03 07:37:31;;;;;;;7.50;4.50;;;17.80;99.90;;;;;;5068207;28;20020;-47
2021/08/03 07:39:57;;;;;;;5.22;3.33;;;17.80;99.90;;;;;;5069352;28;20024;-50
2021/08/03 07:42:22;;;;;;;6.22;3.38;;;17.80;99.90;;;;;;5071909;28;20638;-46
2021/08/03 07:44:48;;;;;;;3.08;2.63;;;17.90;99.90;;;;;;5071205;28;20032;-46
2021/08/03 07:47:13;;;;;;;5.25;2.95;;;18.00;99.90;;;;;;5071765;28;20082;-47
2021/08/03 07:49:39;;;;;;;7.30;2.70;;;18.20;99.90;;;;;;5071618;28;20679;-46
2021/08/03 07:52:06;;;;;;;4.22;2.42;;;18.40;99.90;;;;;;5071580;28;20107;-47
2021/08/03 07:54:32;;;;;;;4.13;2.65;;;18.70;99.90;;;;;;5070721;28;20056;-48
2021/08/03 07:56:57;;;;;;;5.72;2.67;;;18.80;99.90;;;;;;5071494;28;20108;-47
2021/08/03 07:59:23;;;;;;;5.03;2.53;;;19.00;99.90;;;;;;5071381;28;20088;-46
2021/08/03 08:01:49;;;;;;;2.72;1.80;;;19.10;99.90;;;;;;5071218;28;20490;-49
2021/08/03 08:04:14;;;;;;;3.47;2.35;;;18.90;99.90;;;;;;5070611;28;20043;-48
2021/08/03 08:06:40;;;;;;;3.47;1.92;;;18.90;99.90;;;;;;5071293;28;20394;-47
2021/08/03 08:09:05;;;;;;;2.38;1.40;;;18.90;99.90;;;;;;5071349;28;20098;-46
2021/08/03 08:11:30;;;;;;;1.33;1.08;;;19.10;99.90;;;;;;5071037;28;20621;-47
2021/08/03 08:13:56;;;;;;;4.47;1.20;;;19.30;99.90;;;;;;5070684;28;20032;-47
2021/08/03 08:16:22;;;;;;;1.80;1.10;;;19.60;99.90;;;;;;5070614;28;20535;-47
2021/08/03 08:18:47;;;;;;;2.47;1.13;;;19.70;99.90;;;;;;5069726;28;20020;-47
2021/08/03 08:21:12;;;;;;;2.10;1.20;;;20.10;99.90;;;;;;5070993;28;20021;-46
2021/08/03 08:23:38;;;;;;;1.40;1.00;;;20.10;99.90;;;;;;5070319;28;20028;-47
2021/08/03 08:26:04;;;;;;;4.38;1.30;;;20.50;99.90;;;;;;5070846;28;20039;-47
2021/08/03 08:28:29;;;;;;;2.33;1.30;;;20.70;99.90;;;;;;5069553;28;20024;-48
2021/08/03 08:30:55;;;;;;;2.95;1.23;;;21.00;99.90;;;;;;5069393;28;20033;-47
2021/08/03 08:33:21;;;;;;;3.10;1.23;;;21.20;98.80;;;;;;5070028;28;20040;-47
2021/08/03 08:35:46;;;;;;;3.25;1.00;;;21.10;98.60;;;;;;5070573;28;20024;-47
2021/08/03 08:38:12;;;;;;;1.45;0.90;;;21.90;99.40;;;;;;5070618;28;20042;-47
2021/08/03 08:40:38;;;;;;;2.08;1.08;;;22.80;98.10;;;;;;5070660;28;20029;-48
2021/08/03 08:43:04;;;;;;;2.25;0.90;;;23.50;95.60;;;;;;5070649;28;20710;-48
2021/08/03 08:45:30;;;;;;;2.45;0.88;;;25.00;95.10;;;;;;5068633;28;20492;-47
2021/08/03 08:47:57;;;;;;;1.55;0.85;;;25.70;91.50;;;;;;5070704;28;20129;-49
2021/08/03 08:50:25;;;;;;;0.93;0.60;;;25.90;84.30;;;;;;5070519;28;20020;-47
2021/08/03 08:52:56;;;;;;;2.08;0.80;;;25.30;81.70;;;;;;5069818;28;20037;-47
2021/08/03 08:55:23;;;;;;;1.13;0.63;;;24.60;82.30;;;;;;5069781;28;20521;-48
2021/08/03 08:57:51;;;;;;;1.35;0.70;;;23.40;82.00;;;;;;5070408;28;20028;-47
2021/08/03 09:00:19;;;;;;;2.55;0.90;;;22.70;86.30;;;;;;5070153;28;20024;-48
2021/08/03 09:02:53;;;;;;;2.30;1.00;;;22.20;87.70;;;;;;5070234;28;20016;-47
2021/08/03 09:05:29;;;;;;;1.13;0.70;;;21.70;89.10;;;;;;5069617;28;20453;-47
2021/08/03 09:07:57;;;;;;;0.80;0.70;;;21.50;89.80;;;;;;5070249;28;20440;-47
2021/08/03 09:10:34;;;;;;;5.22;1.20;;;22.10;90.20;;;;;;5070028;28;20581;-50
2021/08/03 09:13:13;;;;;;;2.28;1.20;;;23.40;89.00;;;;;;5069877;28;20494;-48
2021/08/03 09:15:42;;;;;;;1.55;0.93;;;23.90;85.70;;;;;;5068314;28;20035;-47
2021/08/03 09:18:15;;;;;;;1.67;0.80;;;24.40;77.50;;;;;;5069876;28;20027;-47
2021/08/03 09:20:46;;;;;;;1.23;0.90;;;24.10;81.10;;;;;;5069886;28;20029;-47
2021/08/03 09:23:11;;;;;;;2.13;1.10;;;24.50;81.60;;;;;;5069389;28;20283;-47
2021/08/03 09:25:38;;;;;;;1.35;0.82;;;24.80;78.20;;;;;;5069518;28;20056;-49
2021/08/03 09:28:08;;;;;;;2.00;0.80;;;25.40;79.00;;;;;;5068290;28;20029;-48
2021/08/03 09:30:36;;;;;;;1.90;0.80;;;25.70;74.70;;;;;;5069754;28;20032;-48
2021/08/03 09:33:02;;;;;;;2.13;0.85;;;25.70;76.30;;;;;;5070007;28;20036;-50
2021/08/03 09:35:29;;;;;;;2.15;0.93;;;26.90;73.40;;;;;;5068907;28;20029;-47
2021/08/03 09:37:55;;;;;;;3.92;0.82;;;26.90;69.40;;;;;;5069801;28;20021;-48
2021/08/03 09:40:27;;;;;;;0.82;0.75;;;26.60;69.10;;;;;;5069394;28;20039;-47
2021/08/03 09:43:01;;;;;;;1.95;1.13;;;26.10;70.80;;;;;;5068232;28;20111;-49
2021/08/03 09:45:29;;;;;;;2.25;1.20;;;27.50;70.60;;;;;;5068948;28;20031;-49
2021/08/03 09:48:17;;;;;;;3.22;1.00;;;27.30;65.10;;;;;;5069469;28;20040;-50
2021/08/03 09:50:51;;;;;;;1.00;0.80;;;27.60;64.60;;;;;;5069356;28;20025;-48
2021/08/03 09:53:49;;;;;;;1.35;0.73;;;28.50;67.00;;;;;;5068864;28;20024;-51
2021/08/03 09:56:23;;;;;;;2.58;1.00;;;29.50;62.10;;;;;;5069445;28;20017;-48
2021/08/03 09:58:54;;;;;;;2.13;1.00;;;28.80;61.40;;;;;;5067701;28;20021;-50
2021/08/03 10:01:26;;;;;;;1.63;0.90;;;29.00;61.50;;;;;;5069318;28;20032;-48
2021/08/03 10:03:53;;;;;;;1.13;0.80;;;29.60;59.60;;;;;;5068299;28;20114;-51
2021/08/03 10:06:19;;;;;;;1.00;0.88;;;30.10;60.70;;;;;;5068812;28;20035;-49
2021/08/03 10:08:50;;;;;;;1.95;1.35;;;30.50;57.50;;;;;;5069249;28;20554;-50
2021/08/03 10:11:17;;;;;;;1.27;0.90;;;30.40;53.40;;;;;;5068981;28;20041;-51
2021/08/03 10:13:44;;;;;;;1.63;0.75;;;30.30;54.90;;;;;;5068156;28;20063;-49
2021/08/03 10:16:12;;;;;;;1.45;0.85;;;29.90;55.50;;;;;;5068944;28;20650;-50
2021/08/03 10:18:43;;;;;;;2.20;1.23;;;30.10;54.30;;;;;;5068689;28;20545;-47
2021/08/03 10:21:20;;;;;;;2.05;0.90;;;30.60;53.90;;;;;;5068745;28;20502;-50
2021/08/03 10:23:46;;;;;;;2.22;1.10;;;31.10;55.50;;;;;;5067996;28;20024;-50
2021/08/03 10:26:13;;;;;;;3.63;1.23;;;30.80;52.40;;;;;;5068680;28;20035;-49
2021/08/03 10:28:39;;;;;;;3.50;0.95;;;30.40;52.80;;;;;;5068847;28;20222;-48
2021/08/03 10:31:05;;;;;;;3.03;1.00;;;29.90;53.50;;;;;;5068658;28;20103;-48
2021/08/03 10:33:44;;;;;;;2.60;1.23;;;29.10;56.50;;;;;;5068045;28;20490;-48
2021/08/03 10:36:39;;;;;;;1.02;0.73;;;28.60;57.30;;;;;;5068711;28;20025;-48
2021/08/03 10:39:08;;;;;;;2.22;1.02;;;28.20;56.00;;;;;;5068964;28;20021;-47
2021/08/03 10:41:59;;;;;;;2.30;1.08;;;28.30;57.90;;;;;;5068686;28;20016;-47
2021/08/03 10:44:41;;;;;;;1.92;1.05;;;28.60;57.30;;;;;;5067629;28;20427;-49
2021/08/03 10:47:32;;;;;;;2.53;1.60;;;29.20;56.30;;;;;;5068521;28;20482;-49
2021/08/03 10:50:11;;;;;;;2.72;1.63;;;27.50;53.60;;;;;;5068525;28;20035;-50
2021/08/03 10:52:46;;;;;;;2.83;1.52;;;27.60;54.50;;;;;;5068914;28;20089;-48
2021/08/03 10:55:41;;;;;;;1.63;1.52;;;27.10;54.40;;;;;;5068050;28;20528;-48
2021/08/03 10:58:10;;;;;;;3.67;1.40;;;27.10;54.70;;;;;;5068448;28;20032;-50
2021/08/03 11:00:44;;;;;;;1.50;1.35;;;28.40;56.30;;;;;;5068322;28;20273;-51
2021/08/03 11:03:34;;;;;;;2.15;1.40;;;29.10;55.60;;;;;;5066815;28;20028;-49
2021/08/03 11:06:06;;;;;;;2.25;1.55;;;29.60;54.90;;;;;;5068457;28;20020;-51
2021/08/03 11:08:35;;;;;;;2.45;1.65;;;30.40;54.60;;;;;;5068242;28;20028;-51
2021/08/03 11:11:10;;;;;;;3.93;1.20;;;31.10;54.40;;;;;;5066818;28;20031;-50
2021/08/03 11:13:39;;;;;;;1.60;1.30;;;31.40;50.50;;;;;;5067482;28;20032;-50
2021/08/03 11:16:10;;;;;;;;;;;30.70;51.80;;;;;;5071809;28;20062;-48
2021/08/03 11:18:43;;;;;;;2.92;1.67;;;29.70;52.00;;;;;;5072424;28;19995;-49
2021/08/03 11:21:14;;;;;;;2.33;1.90;;;28.60;53.10;;;;;;5072443;28;20027;-49
2021/08/03 11:24:16;;;;;;;3.20;1.80;;;28.10;54.20;;;;;;5071452;28;20035;-48
2021/08/03 11:26:53;;;;;;;2.63;2.17;;;26.60;55.70;;;;;;5072264;28;20103;-48
2021/08/03 11:29:26;;;;;;;3.08;2.00;;;26.70;58.50;;;;;;5071945;28;20498;-48
2021/08/03 11:31:56;;;;;;;2.95;2.08;;;26.90;57.10;;;;;;5071913;28;20025;-49
2021/08/03 11:34:28;;;;;;;2.45;2.25;;;26.70;56.00;;;;;;5071043;28;20585;-50
2021/08/03 11:36:56;;;;;;;4.13;2.25;;;27.20;58.50;;;;;;5071745;28;20036;-48
2021/08/03 11:39:27;;;;;;;2.85;2.40;;;27.00;59.50;;;;;;5071863;28;20056;-49
2021/08/03 11:41:53;;;;;;;3.15;2.22;;;26.50;57.30;;;;;;5071746;28;20037;-50
2021/08/03 11:44:20;;;;;;;2.72;2.00;;;25.60;59.60;;;;;;5069850;28;20036;-49
2021/08/03 11:46:53;;;;;;;2.72;1.92;;;25.50;60.40;;;;;;5071684;28;20028;-48
2021/08/03 11:49:19;;;;;;;3.17;2.35;;;25.50;61.40;;;;;;5071662;28;20494;-48
2021/08/03 11:51:45;;;;;;;2.75;2.55;;;25.80;60.80;;;;;;5070265;28;20082;-49
2021/08/03 11:54:16;;;;;;;4.93;2.75;;;25.60;59.20;;;;;;5069521;28;20024;-48
2021/08/03 11:56:43;;;;;;;2.85;2.40;;;26.20;58.90;;;;;;5070224;28;20477;-47
2021/08/03 11:59:11;;;;;;;3.53;2.47;;;26.50;58.20;;;;;;5069970;28;20032;-49
2021/08/03 12:01:47;;;;;;;3.80;2.35;;;26.40;57.30;;;;;;5071251;28;20086;-47
2021/08/03 12:04:14;;;;;;;4.57;2.63;;;26.20;58.20;;;;;;5070783;28;20039;-47
2021/08/03 12:06:39;;;;;;;4.85;2.60;;;26.30;59.60;;;;;;5071233;28;20051;-47
2021/08/03 12:09:06;;;;;;;4.50;2.25;;;26.00;57.20;;;;;;5071351;28;20528;-47
2021/08/03 12:11:32;;;;;;;2.97;2.28;;;25.90;59.80;;;;;;5070963;28;20024;-48
2021/08/03 12:14:08;;;;;;;8.63;2.42;;;25.40;58.90;;;;;;5070384;28;20017;-47
2021/08/03 12:16:33;;;;;;;3.38;2.22;;;25.60;57.80;;;;;;5071484;28;20058;-48
2021/08/03 12:18:59;;;;;;;3.28;2.30;;;25.80;59.90;;;;;;5070867;28;20517;-47
2021/08/03 12:21:37;;;;;;;3.47;2.05;;;25.80;59.40;;;;;;5070865;28;20036;-48
2021/08/03 12:24:07;;;;;;;2.25;1.83;;;25.60;58.30;;;;;;5070275;28;20461;-47
2021/08/03 12:26:33;;;;;;;2.78;1.85;;;25.20;59.20;;;;;;5069982;28;20024;-48
2021/08/03 12:28:59;;;;;;;4.10;2.50;;;25.20;59.20;;;;;;5070897;28;20082;-47
2021/08/03 12:31:28;;;;;;;4.03;2.05;;;25.10;60.00;;;;;;5069397;28;20074;-48
2021/08/03 12:34:16;;;;;;;4.50;2.35;;;25.10;60.10;;;;;;5070082;28;20074;-47
2021/08/03 12:36:55;;;;;;;3.28;2.42;;;25.40;60.70;;;;;;5070695;28;20025;-48
2021/08/03 12:39:39;;;;;;;4.70;2.13;;;25.00;60.20;;;;;;5070676;28;20095;-48
2021/08/03 12:42:17;;;;;;;6.65;2.28;;;25.20;62.20;;;;;;5070992;28;20032;-48
2021/08/03 12:44:43;;;;;;;3.30;2.03;;;25.30;59.80;;;;;;5070377;28;20082;-49
2021/08/03 12:47:17;;;;;;;3.78;1.95;;;25.30;59.10;;;;;;5070789;28;20409;-48
2021/08/03 12:49:45;;;;;;;4.38;2.45;;;25.20;60.30;;;;;;5070597;28;20024;-47
2021/08/03 12:52:12;;;;;;;6.28;2.10;;;25.10;60.10;;;;;;5070477;28;20355;-47
2021/08/03 12:54:40;;;;;;;4.40;2.30;;;25.40;59.70;;;;;;5069930;28;20100;-47
2021/08/03 12:57:05;;;;;;;5.15;2.13;;;25.50;60.50;;;;;;5070460;28;20058;-50
2021/08/03 12:59:39;;;;;;;3.13;2.47;;;25.50;60.10;;;;;;5070471;28;20724;-48